Hastings, Florida
Current Conditions -  °F | °C
As of 11:15 AM on Sunday 25 Jan 2015 (Local Time) from K28J Reporting Station
Clear Clear  
Wind Chill: 12°   Ceiling: Unl
Heat Index: 12°   Visibility: 10mi
Dew Point:   Wind: 5mph
Humidity: 47%   Direction: 260°W
Pressure: 30.09"   Gusts: NA
Location:  29.72°N, 81.51°W
Report Text: K28J 251615Z AUTO 26004KT 10SM CLR 12/01 A3009 RMK AO2
Loading
Personal Weather Stations






























Interactive Weather Map New forecast layout! Learn more

10-Day Weather Forecast

Advertisements
Track Severe Weather on mobile